sensor_id;sensor_type;location;lat;lon;timestamp;pressure;altitude;pressure_sealevel;temperature
50206;BMP280;36098;48.390;10.856;2023-02-13T00:00:51;97912.41;;;22.74
50206;BMP280;36098;48.390;10.856;2023-02-13T00:03:16;97900.41;;;22.78
50206;BMP280;36098;48.390;10.856;2023-02-13T00:05:41;97910.81;;;22.73
50206;BMP280;36098;48.390;10.856;2023-02-13T00:08:07;97914.25;;;22.73
50206;BMP280;36098;48.390;10.856;2023-02-13T00:10:32;97912.19;;;22.75
50206;BMP280;36098;48.390;10.856;2023-02-13T00:12:57;97908.63;;;22.70
50206;BMP280;36098;48.390;10.856;2023-02-13T00:15:22;97914.81;;;22.64
50206;BMP280;36098;48.390;10.856;2023-02-13T00:17:47;97909.53;;;22.64
50206;BMP280;36098;48.390;10.856;2023-02-13T00:20:13;97909.97;;;22.61
50206;BMP280;36098;48.390;10.856;2023-02-13T00:22:38;97906.31;;;22.62
50206;BMP280;36098;48.390;10.856;2023-02-13T00:25:04;97906.53;;;22.60
50206;BMP280;36098;48.390;10.856;2023-02-13T00:27:29;97907.19;;;22.56
50206;BMP280;36098;48.390;10.856;2023-02-13T00:29:54;97913.03;;;22.58
50206;BMP280;36098;48.390;10.856;2023-02-13T00:32:19;97905.81;;;22.53
50206;BMP280;36098;48.390;10.856;2023-02-13T00:34:44;97911.31;;;22.52
50206;BMP280;36098;48.390;10.856;2023-02-13T00:37:10;97911.75;;;22.49
50206;BMP280;36098;48.390;10.856;2023-02-13T00:39:35;97908.31;;;22.48
50206;BMP280;36098;48.390;10.856;2023-02-13T00:42:00;97912.56;;;22.49
50206;BMP280;36098;48.390;10.856;2023-02-13T00:44:25;97916.94;;;22.55
50206;BMP280;36098;48.390;10.856;2023-02-13T00:46:50;97911.31;;;22.52
50206;BMP280;36098;48.390;10.856;2023-02-13T00:49:15;97904.31;;;22.46
50206;BMP280;36098;48.390;10.856;2023-02-13T00:51:41;97912.78;;;22.48
50206;BMP280;36098;48.390;10.856;2023-02-13T00:54:06;97908.75;;;22.45
50206;BMP280;36098;48.390;10.856;2023-02-13T00:56:31;97912.84;;;22.41
50206;BMP280;36098;48.390;10.856;2023-02-13T00:58:56;97908.63;;;22.40
50206;BMP280;36098;48.390;10.856;2023-02-13T01:01:21;97908.63;;;22.40
50206;BMP280;36098;48.390;10.856;2023-02-13T01:03:46;97908.16;;;22.43
50206;BMP280;36098;48.390;10.856;2023-02-13T01:06:12;97909.44;;;22.41
50206;BMP280;36098;48.390;10.856;2023-02-13T01:08:38;97913.69;;;22.42
50206;BMP280;36098;48.390;10.856;2023-02-13T01:11:03;97905.78;;;22.42
50206;BMP280;36098;48.390;10.856;2023-02-13T01:13:28;97905.41;;;22.38
50206;BMP280;36098;48.390;10.856;2023-02-13T01:15:53;97902.38;;;22.35
50206;BMP280;36098;48.390;10.856;2023-02-13T01:18:19;97905.00;;;22.35
50206;BMP280;36098;48.390;10.856;2023-02-13T01:20:44;97907.06;;;22.33
50206;BMP280;36098;48.390;10.856;2023-02-13T01:23:10;97901.22;;;22.31
50206;BMP280;36098;48.390;10.856;2023-02-13T01:25:38;97906.94;;;22.28
50206;BMP280;36098;48.390;10.856;2023-02-13T01:28:03;97908.16;;;22.25
50206;BMP280;36098;48.390;10.856;2023-02-13T01:30:28;97919.38;;;22.21
50206;BMP280;36098;48.390;10.856;2023-02-13T01:32:54;97910.47;;;22.22
50206;BMP280;36098;48.390;10.856;2023-02-13T01:35:19;97911.63;;;22.26
50206;BMP280;36098;48.390;10.856;2023-02-13T01:37:44;97910.22;;;22.23
50206;BMP280;36098;48.390;10.856;2023-02-13T01:40:11;97913.75;;;22.17
50206;BMP280;36098;48.390;10.856;2023-02-13T01:42:36;97914.91;;;22.21
50206;BMP280;36098;48.390;10.856;2023-02-13T01:45:03;97903.59;;;22.21
50206;BMP280;36098;48.390;10.856;2023-02-13T01:52:29;97907.44;;;22.18
50206;BMP280;36098;48.390;10.856;2023-02-13T01:54:54;97897.56;;;22.14
50206;BMP280;36098;48.390;10.856;2023-02-13T01:57:20;97901.25;;;22.13
50206;BMP280;36098;48.390;10.856;2023-02-13T01:59:47;97893.34;;;22.13
50206;BMP280;36098;48.390;10.856;2023-02-13T02:02:13;97899.44;;;22.13
50206;BMP280;36098;48.390;10.856;2023-02-13T02:04:38;97898.25;;;22.09
50206;BMP280;36098;48.390;10.856;2023-02-13T02:07:06;97891.97;;;22.10
50206;BMP280;36098;48.390;10.856;2023-02-13T02:09:33;97895.84;;;22.08
50206;BMP280;36098;48.390;10.856;2023-02-13T02:14:26;97897.44;;;22.09
50206;BMP280;36098;48.390;10.856;2023-02-13T02:16:52;97896.88;;;22.07
50206;BMP280;36098;48.390;10.856;2023-02-13T02:24:46;97906.44;;;22.01
50206;BMP280;36098;48.390;10.856;2023-02-13T02:32:35;97900.97;;;22.03
50206;BMP280;36098;48.390;10.856;2023-02-13T02:35:11;97896.50;;;22.03
50206;BMP280;36098;48.390;10.856;2023-02-13T02:40:23;97899.34;;;22.02
50206;BMP280;36098;48.390;10.856;2023-02-13T02:45:36;97900.16;;;22.02
50206;BMP280;36098;48.390;10.856;2023-02-13T02:50:57;97895.41;;;21.93
50206;BMP280;36098;48.390;10.856;2023-02-13T02:56:25;97895.47;;;21.86
50206;BMP280;36098;48.390;10.856;2023-02-13T02:58:52;97897.88;;;21.88
50206;BMP280;36098;48.390;10.856;2023-02-13T03:01:37;97902.72;;;21.91
50206;BMP280;36098;48.390;10.856;2023-02-13T03:04:26;97898.34;;;21.85
50206;BMP280;36098;48.390;10.856;2023-02-13T03:07:13;97897.06;;;21.87
50206;BMP280;36098;48.390;10.856;2023-02-13T03:09:40;97905.97;;;21.86
50206;BMP280;36098;48.390;10.856;2023-02-13T03:12:28;97911.09;;;21.81
50206;BMP280;36098;48.390;10.856;2023-02-13T03:15:13;97907.44;;;21.82
50206;BMP280;36098;48.390;10.856;2023-02-13T03:17:38;97906.66;;;21.82
50206;BMP280;36098;48.390;10.856;2023-02-13T03:23:13;97906.06;;;21.80
50206;BMP280;36098;48.390;10.856;2023-02-13T03:36:26;97911.75;;;21.77
50206;BMP280;36098;48.390;10.856;2023-02-13T03:39:12;97915.06;;;21.72
50206;BMP280;36098;48.390;10.856;2023-02-13T03:41:49;97912.19;;;21.74
50206;BMP280;36098;48.390;10.856;2023-02-13T03:46:44;97918.03;;;21.76
50206;BMP280;36098;48.390;10.856;2023-02-13T03:49:13;97914.81;;;21.74
50206;BMP280;36098;48.390;10.856;2023-02-13T03:52:05;97916.06;;;21.71
50206;BMP280;36098;48.390;10.856;2023-02-13T03:54:37;97919.50;;;21.72
50206;BMP280;36098;48.390;10.856;2023-02-13T03:57:22;97921.75;;;21.68
50206;BMP280;36098;48.390;10.856;2023-02-13T04:00:08;97921.53;;;21.70
50206;BMP280;36098;48.390;10.856;2023-02-13T04:02:36;97923.59;;;21.68
50206;BMP280;36098;48.390;10.856;2023-02-13T04:05:07;97923.00;;;21.66
50206;BMP280;36098;48.390;10.856;2023-02-13T04:07:35;97917.94;;;21.64
50206;BMP280;36098;48.390;10.856;2023-02-13T04:10:07;97922.41;;;21.64
50206;BMP280;36098;48.390;10.856;2023-02-13T04:15:41;97924.81;;;21.65
50206;BMP280;36098;48.390;10.856;2023-02-13T04:17:48;97925.84;;;21.64
50206;BMP280;36098;48.390;10.856;2023-02-13T04:20:15;97930.72;;;21.61
50206;BMP280;36098;48.390;10.856;2023-02-13T04:22:40;97926.88;;;21.63
50206;BMP280;36098;48.390;10.856;2023-02-13T04:25:06;97927.69;;;21.64
50206;BMP280;36098;48.390;10.856;2023-02-13T04:27:31;97931.34;;;21.63
50206;BMP280;36098;48.390;10.856;2023-02-13T04:29:56;97940.03;;;21.57
50206;BMP280;36098;48.390;10.856;2023-02-13T04:32:21;97943.09;;;21.54
50206;BMP280;36098;48.390;10.856;2023-02-13T04:34:47;97944.69;;;21.55
50206;BMP280;36098;48.390;10.856;2023-02-13T04:37:12;97942.91;;;21.55
50206;BMP280;36098;48.390;10.856;2023-02-13T04:39:37;97947.34;;;21.55
50206;BMP280;36098;48.390;10.856;2023-02-13T04:42:02;97945.97;;;21.52
50206;BMP280;36098;48.390;10.856;2023-02-13T04:44:27;97948.00;;;21.50
50206;BMP280;36098;48.390;10.856;2023-02-13T04:46:52;97940.91;;;21.51
50206;BMP280;36098;48.390;10.856;2023-02-13T04:49:18;97946.16;;;21.51
50206;BMP280;36098;48.390;10.856;2023-02-13T04:51:43;97952.44;;;21.50
50206;BMP280;36098;48.390;10.856;2023-02-13T04:54:09;97947.38;;;21.48
50206;BMP280;36098;48.390;10.856;2023-02-13T04:56:34;97943.53;;;21.51
50206;BMP280;36098;48.390;10.856;2023-02-13T04:58:59;97943.59;;;21.44
50206;BMP280;36098;48.390;10.856;2023-02-13T05:01:24;97945.19;;;21.45
50206;BMP280;36098;48.390;10.856;2023-02-13T05:03:50;97940.53;;;21.47
50206;BMP280;36098;48.390;10.856;2023-02-13T05:06:15;97950.09;;;21.42
50206;BMP280;36098;48.390;10.856;2023-02-13T05:08:40;97945.41;;;21.20
50206;BMP280;36098;48.390;10.856;2023-02-13T05:11:05;97942.72;;;21.02
50206;BMP280;36098;48.390;10.856;2023-02-13T05:13:31;97952.22;;;20.96
50206;BMP280;36098;48.390;10.856;2023-02-13T05:15:56;97950.44;;;20.97
50206;BMP280;36098;48.390;10.856;2023-02-13T05:18:21;97945.50;;;21.07
50206;BMP280;36098;48.390;10.856;2023-02-13T05:20:46;97948.44;;;21.23
50206;BMP280;36098;48.390;10.856;2023-02-13T05:23:31;97947.22;;;21.43
50206;BMP280;36098;48.390;10.856;2023-02-13T05:25:57;97938.97;;;21.64
50206;BMP280;36098;48.390;10.856;2023-02-13T05:28:22;97930.34;;;21.82
50206;BMP280;36098;48.390;10.856;2023-02-13T05:31:07;97934.94;;;22.04
50206;BMP280;36098;48.390;10.856;2023-02-13T05:33:32;97939.25;;;22.17
50206;BMP280;36098;48.390;10.856;2023-02-13T05:35:57;97937.50;;;22.29
50206;BMP280;36098;48.390;10.856;2023-02-13T05:38:22;97937.81;;;22.39
50206;BMP280;36098;48.390;10.856;2023-02-13T05:40:48;97936.03;;;22.51
50206;BMP280;36098;48.390;10.856;2023-02-13T05:43:13;97943.78;;;22.64
50206;BMP280;36098;48.390;10.856;2023-02-13T05:45:38;97943.31;;;22.67
50206;BMP280;36098;48.390;10.856;2023-02-13T05:48:03;97942.66;;;22.71
50206;BMP280;36098;48.390;10.856;2023-02-13T05:50:28;97937.50;;;22.76
50206;BMP280;36098;48.390;10.856;2023-02-13T05:52:54;97942.91;;;22.81
50206;BMP280;36098;48.390;10.856;2023-02-13T05:55:19;97947.88;;;22.89
50206;BMP280;36098;48.390;10.856;2023-02-13T05:57:44;97947.56;;;22.97
50206;BMP280;36098;48.390;10.856;2023-02-13T06:00:09;97931.66;;;23.04
50206;BMP280;36098;48.390;10.856;2023-02-13T06:02:34;97937.03;;;23.09
50206;BMP280;36098;48.390;10.856;2023-02-13T06:05:00;97932.34;;;23.11
50206;BMP280;36098;48.390;10.856;2023-02-13T06:07:25;97936.31;;;23.20
50206;BMP280;36098;48.390;10.856;2023-02-13T06:09:50;97938.13;;;23.30
50206;BMP280;36098;48.390;10.856;2023-02-13T06:12:15;97948.22;;;23.33
50206;BMP280;36098;48.390;10.856;2023-02-13T06:14:40;97945.75;;;23.38
50206;BMP280;36098;48.390;10.856;2023-02-13T06:17:05;97943.78;;;23.45
50206;BMP280;36098;48.390;10.856;2023-02-13T06:19:31;97943.22;;;23.55
50206;BMP280;36098;48.390;10.856;2023-02-13T06:21:56;97949.88;;;23.57
50206;BMP280;36098;48.390;10.856;2023-02-13T06:24:21;97947.25;;;23.57
50206;BMP280;36098;48.390;10.856;2023-02-13T06:26:46;97943.31;;;23.60
50206;BMP280;36098;48.390;10.856;2023-02-13T06:29:12;97951.59;;;23.63
50206;BMP280;36098;48.390;10.856;2023-02-13T06:31:37;97950.56;;;23.64
50206;BMP280;36098;48.390;10.856;2023-02-13T06:34:02;97948.84;;;23.70
50206;BMP280;36098;48.390;10.856;2023-02-13T06:36:27;97959.97;;;23.72
50206;BMP280;36098;48.390;10.856;2023-02-13T06:38:52;97946.31;;;23.75
50206;BMP280;36098;48.390;10.856;2023-02-13T06:41:18;97945.38;;;23.81
50206;BMP280;36098;48.390;10.856;2023-02-13T06:43:43;97948.97;;;23.86
50206;BMP280;36098;48.390;10.856;2023-02-13T06:46:08;97958.03;;;23.90
50206;BMP280;36098;48.390;10.856;2023-02-13T06:48:33;97952.06;;;23.95
50206;BMP280;36098;48.390;10.856;2023-02-13T06:50:59;97956.09;;;23.97
50206;BMP280;36098;48.390;10.856;2023-02-13T06:53:26;97953.78;;;24.01
50206;BMP280;36098;48.390;10.856;2023-02-13T06:55:51;97956.31;;;24.07
50206;BMP280;36098;48.390;10.856;2023-02-13T06:58:17;97962.72;;;24.11
50206;BMP280;36098;48.390;10.856;2023-02-13T07:00:43;97965.50;;;24.16
50206;BMP280;36098;48.390;10.856;2023-02-13T07:03:08;97972.94;;;24.19
50206;BMP280;36098;48.390;10.856;2023-02-13T07:05:34;97978.78;;;24.21
50206;BMP280;36098;48.390;10.856;2023-02-13T07:07:59;97981.31;;;24.28
50206;BMP280;36098;48.390;10.856;2023-02-13T07:10:24;97980.75;;;24.26
50206;BMP280;36098;48.390;10.856;2023-02-13T07:12:49;97976.94;;;24.22
50206;BMP280;36098;48.390;10.856;2023-02-13T07:15:15;97979.69;;;24.15
50206;BMP280;36098;48.390;10.856;2023-02-13T07:17:40;97979.03;;;24.08
50206;BMP280;36098;48.390;10.856;2023-02-13T07:20:05;97978.91;;;24.03
50206;BMP280;36098;48.390;10.856;2023-02-13T07:22:31;97973.66;;;23.92
50206;BMP280;36098;48.390;10.856;2023-02-13T07:24:57;97981.69;;;23.85
50206;BMP280;36098;48.390;10.856;2023-02-13T07:27:23;97986.47;;;23.77
50206;BMP280;36098;48.390;10.856;2023-02-13T07:29:48;97990.03;;;23.71
50206;BMP280;36098;48.390;10.856;2023-02-13T07:32:13;97999.88;;;23.64
50206;BMP280;36098;48.390;10.856;2023-02-13T07:34:38;97992.09;;;23.57
50206;BMP280;36098;48.390;10.856;2023-02-13T07:37:04;98000.88;;;23.51
50206;BMP280;36098;48.390;10.856;2023-02-13T07:39:29;98000.19;;;23.44
50206;BMP280;36098;48.390;10.856;2023-02-13T07:41:55;98004.53;;;23.39
50206;BMP280;36098;48.390;10.856;2023-02-13T07:44:20;98010.47;;;23.34
50206;BMP280;36098;48.390;10.856;2023-02-13T07:46:45;98009.91;;;23.32
50206;BMP280;36098;48.390;10.856;2023-02-13T07:49:11;98005.34;;;23.39
50206;BMP280;36098;48.390;10.856;2023-02-13T07:51:36;98003.41;;;23.58
50206;BMP280;36098;48.390;10.856;2023-02-13T07:54:01;98003.53;;;23.63
50206;BMP280;36098;48.390;10.856;2023-02-13T07:56:26;98007.69;;;23.70
50206;BMP280;36098;48.390;10.856;2023-02-13T07:58:52;98009.31;;;23.94
50206;BMP280;36098;48.390;10.856;2023-02-13T08:01:17;97998.50;;;23.73
50206;BMP280;36098;48.390;10.856;2023-02-13T08:03:46;98009.09;;;23.96
50206;BMP280;36098;48.390;10.856;2023-02-13T08:06:11;98008.44;;;23.89
50206;BMP280;36098;48.390;10.856;2023-02-13T08:08:37;98012.69;;;23.37
50206;BMP280;36098;48.390;10.856;2023-02-13T08:11:06;98021.22;;;23.22
50206;BMP280;36098;48.390;10.856;2023-02-13T08:13:51;98014.47;;;23.26
50206;BMP280;36098;48.390;10.856;2023-02-13T08:16:16;98018.75;;;23.38
50206;BMP280;36098;48.390;10.856;2023-02-13T08:18:43;98007.19;;;23.50
50206;BMP280;36098;48.390;10.856;2023-02-13T08:21:08;98006.06;;;23.58
50206;BMP280;36098;48.390;10.856;2023-02-13T08:23:33;98008.03;;;23.62
50206;BMP280;36098;48.390;10.856;2023-02-13T08:25:59;98009.06;;;23.61
50206;BMP280;36098;48.390;10.856;2023-02-13T08:28:25;98013.19;;;23.57
50206;BMP280;36098;48.390;10.856;2023-02-13T08:30:50;98013.03;;;23.52
50206;BMP280;36098;48.390;10.856;2023-02-13T08:33:16;98004.44;;;23.45
50206;BMP280;36098;48.390;10.856;2023-02-13T08:35:41;98011.97;;;23.42
50206;BMP280;36098;48.390;10.856;2023-02-13T08:38:06;98017.13;;;23.37
50206;BMP280;36098;48.390;10.856;2023-02-13T08:40:31;98011.75;;;23.32
50206;BMP280;36098;48.390;10.856;2023-02-13T08:43:00;98017.69;;;23.27
50206;BMP280;36098;48.390;10.856;2023-02-13T08:45:26;98019.38;;;23.22
50206;BMP280;36098;48.390;10.856;2023-02-13T08:47:54;98021.09;;;23.17
50206;BMP280;36098;48.390;10.856;2023-02-13T08:50:19;98018.91;;;23.14
50206;BMP280;36098;48.390;10.856;2023-02-13T08:52:44;98016.69;;;23.11
50206;BMP280;36098;48.390;10.856;2023-02-13T08:55:09;98022.81;;;23.11
50206;BMP280;36098;48.390;10.856;2023-02-13T08:57:35;98019.47;;;23.16
50206;BMP280;36098;48.390;10.856;2023-02-13T09:00:00;98018.03;;;23.20
50206;BMP280;36098;48.390;10.856;2023-02-13T09:02:25;98031.19;;;23.20
50206;BMP280;36098;48.390;10.856;2023-02-13T09:04:50;98028.31;;;23.21
50206;BMP280;36098;48.390;10.856;2023-02-13T09:07:15;98027.63;;;23.14
50206;BMP280;36098;48.390;10.856;2023-02-13T09:09:41;98030.47;;;23.13
50206;BMP280;36098;48.390;10.856;2023-02-13T09:12:06;98022.59;;;23.24
50206;BMP280;36098;48.390;10.856;2023-02-13T09:14:31;98023.38;;;23.54
50206;BMP280;36098;48.390;10.856;2023-02-13T09:16:57;98025.06;;;23.48
50206;BMP280;36098;48.390;10.856;2023-02-13T09:19:22;98034.44;;;23.33
50206;BMP280;36098;48.390;10.856;2023-02-13T09:21:47;98023.53;;;23.29
50206;BMP280;36098;48.390;10.856;2023-02-13T09:24:13;98017.13;;;23.08
50206;BMP280;36098;48.390;10.856;2023-02-13T09:26:38;98028.34;;;23.03
50206;BMP280;36098;48.390;10.856;2023-02-13T09:29:03;98025.03;;;23.08
50206;BMP280;36098;48.390;10.856;2023-02-13T09:31:28;98021.09;;;23.17
50206;BMP280;36098;48.390;10.856;2023-02-13T09:33:53;98025.59;;;23.27
50206;BMP280;36098;48.390;10.856;2023-02-13T09:36:20;98024.56;;;23.28
50206;BMP280;36098;48.390;10.856;2023-02-13T09:38:46;98029.06;;;23.28
50206;BMP280;36098;48.390;10.856;2023-02-13T09:41:13;98032.94;;;23.26
50206;BMP280;36098;48.390;10.856;2023-02-13T09:43:44;98035.19;;;23.22
50206;BMP280;36098;48.390;10.856;2023-02-13T09:46:15;98034.88;;;23.19
50206;BMP280;36098;48.390;10.856;2023-02-13T09:48:42;98026.59;;;23.15
50206;BMP280;36098;48.390;10.856;2023-02-13T09:51:12;98025.44;;;23.11
50206;BMP280;36098;48.390;10.856;2023-02-13T09:53:38;98021.97;;;23.11
50206;BMP280;36098;48.390;10.856;2023-02-13T10:01:02;98033.69;;;23.15
50206;BMP280;36098;48.390;10.856;2023-02-13T10:03:30;98033.06;;;23.30
50206;BMP280;36098;48.390;10.856;2023-02-13T10:08:24;98033.19;;;23.35
50206;BMP280;36098;48.390;10.856;2023-02-13T10:11:11;98038.38;;;23.53
50206;BMP280;36098;48.390;10.856;2023-02-13T10:16:44;98038.63;;;23.11
50206;BMP280;36098;48.390;10.856;2023-02-13T10:22:12;98040.13;;;23.19
50206;BMP280;36098;48.390;10.856;2023-02-13T10:24:48;98034.56;;;23.09
50206;BMP280;36098;48.390;10.856;2023-02-13T10:27:21;98036.16;;;23.10
50206;BMP280;36098;48.390;10.856;2023-02-13T10:29:57;98043.16;;;23.33
50206;BMP280;36098;48.390;10.856;2023-02-13T10:32:35;98035.06;;;23.46
50206;BMP280;36098;48.390;10.856;2023-02-13T10:35:01;98032.66;;;23.56
50206;BMP280;36098;48.390;10.856;2023-02-13T10:37:27;98032.06;;;23.54
50206;BMP280;36098;48.390;10.856;2023-02-13T10:39:53;98031.88;;;23.67
50206;BMP280;36098;48.390;10.856;2023-02-13T10:42:20;98028.34;;;23.32
50206;BMP280;36098;48.390;10.856;2023-02-13T10:59:56;98020.78;;;22.77
50206;BMP280;36098;48.390;10.856;2023-02-13T11:02:24;98011.66;;;22.80
50206;BMP280;36098;48.390;10.856;2023-02-13T11:04:57;98011.31;;;22.88
50206;BMP280;36098;48.390;10.856;2023-02-13T11:07:23;98004.69;;;22.97
50206;BMP280;36098;48.390;10.856;2023-02-13T11:09:49;98009.56;;;23.00
50206;BMP280;36098;48.390;10.856;2023-02-13T11:12:25;97997.97;;;23.01
50206;BMP280;36098;48.390;10.856;2023-02-13T11:14:58;97999.81;;;23.00
50206;BMP280;36098;48.390;10.856;2023-02-13T11:17:24;97993.94;;;22.98
50206;BMP280;36098;48.390;10.856;2023-02-13T11:19:52;97991.53;;;22.97
50206;BMP280;36098;48.390;10.856;2023-02-13T11:22:31;97992.13;;;22.99
50206;BMP280;36098;48.390;10.856;2023-02-13T11:27:54;97988.81;;;23.03
50206;BMP280;36098;48.390;10.856;2023-02-13T11:30:29;97998.06;;;22.94
50206;BMP280;36098;48.390;10.856;2023-02-13T11:32:56;97996.09;;;22.90
50206;BMP280;36098;48.390;10.856;2023-02-13T11:35:27;97991.84;;;22.89
50206;BMP280;36098;48.390;10.856;2023-02-13T11:40:36;97984.31;;;22.92
50206;BMP280;36098;48.390;10.856;2023-02-13T11:43:05;97987.28;;;22.96
50206;BMP280;36098;48.390;10.856;2023-02-13T11:45:30;97992.72;;;23.01
50206;BMP280;36098;48.390;10.856;2023-02-13T11:47:56;97999.44;;;22.97
50206;BMP280;36098;48.390;10.856;2023-02-13T11:53:47;97996.06;;;23.08
50206;BMP280;36098;48.390;10.856;2023-02-13T11:55:59;97989.53;;;23.10
50206;BMP280;36098;48.390;10.856;2023-02-13T11:58:27;97997.22;;;23.12
50206;BMP280;36098;48.390;10.856;2023-02-13T12:01:06;97994.97;;;22.97
50206;BMP280;36098;48.390;10.856;2023-02-13T12:03:32;97992.72;;;23.01
50206;BMP280;36098;48.390;10.856;2023-02-13T12:08:25;97990.47;;;23.16
50206;BMP280;36098;48.390;10.856;2023-02-13T12:10:50;97986.88;;;23.28
50206;BMP280;36098;48.390;10.856;2023-02-13T12:13:20;97992.94;;;23.28
50206;BMP280;36098;48.390;10.856;2023-02-13T12:15:52;97985.66;;;23.13
50206;BMP280;36098;48.390;10.856;2023-02-13T12:18:55;97988.78;;;22.92
50206;BMP280;36098;48.390;10.856;2023-02-13T12:54:02;97969.28;;;22.93
50206;BMP280;36098;48.390;10.856;2023-02-13T12:59:07;97958.63;;;22.88
50206;BMP280;36098;48.390;10.856;2023-02-13T13:01:53;97957.06;;;22.98
50206;BMP280;36098;48.390;10.856;2023-02-13T13:04:42;97953.41;;;22.99
50206;BMP280;36098;48.390;10.856;2023-02-13T13:09:40;97945.16;;;23.07
50206;BMP280;36098;48.390;10.856;2023-02-13T13:20:04;97945.81;;;23.21
50206;BMP280;36098;48.390;10.856;2023-02-13T13:22:44;97944.56;;;23.46
50206;BMP280;36098;48.390;10.856;2023-02-13T13:27:36;97936.13;;;24.01
50206;BMP280;36098;48.390;10.856;2023-02-13T13:30:05;97931.97;;;24.05
50206;BMP280;36098;48.390;10.856;2023-02-13T13:32:30;97940.25;;;23.97
50206;BMP280;36098;48.390;10.856;2023-02-13T13:34:56;97948.28;;;23.68
50206;BMP280;36098;48.390;10.856;2023-02-13T13:48:30;97946.41;;;23.23
50206;BMP280;36098;48.390;10.856;2023-02-13T13:50:46;97952.34;;;23.18
50206;BMP280;36098;48.390;10.856;2023-02-13T13:53:12;97947.63;;;23.20
50206;BMP280;36098;48.390;10.856;2023-02-13T14:03:38;97956.75;;;23.58
50206;BMP280;36098;48.390;10.856;2023-02-13T14:06:08;97955.94;;;23.46
50206;BMP280;36098;48.390;10.856;2023-02-13T14:11:02;97959.00;;;23.21
50206;BMP280;36098;48.390;10.856;2023-02-13T14:13:32;97959.56;;;23.23
50206;BMP280;36098;48.390;10.856;2023-02-13T14:15:57;97959.38;;;23.47
50206;BMP280;36098;48.390;10.856;2023-02-13T14:18:23;97961.69;;;23.55
50206;BMP280;36098;48.390;10.856;2023-02-13T14:23:22;97962.16;;;23.63
50206;BMP280;36098;48.390;10.856;2023-02-13T14:26:08;97958.47;;;23.76
50206;BMP280;36098;48.390;10.856;2023-02-13T14:28:33;97960.75;;;23.61
50206;BMP280;36098;48.390;10.856;2023-02-13T14:32:00;97961.97;;;23.35
50206;BMP280;36098;48.390;10.856;2023-02-13T14:34:00;97956.13;;;23.22
50206;BMP280;36098;48.390;10.856;2023-02-13T14:36:27;97953.84;;;23.26
50206;BMP280;36098;48.390;10.856;2023-02-13T14:38:57;97956.94;;;23.23
50206;BMP280;36098;48.390;10.856;2023-02-13T14:41:42;97958.66;;;22.99
50206;BMP280;36098;48.390;10.856;2023-02-13T14:44:18;97948.56;;;23.14
50206;BMP280;36098;48.390;10.856;2023-02-13T14:46:43;97955.47;;;22.97
50206;BMP280;36098;48.390;10.856;2023-02-13T14:49:12;97965.50;;;22.89
50206;BMP280;36098;48.390;10.856;2023-02-13T14:51:39;97954.47;;;22.80
50206;BMP280;36098;48.390;10.856;2023-02-13T14:54:07;97957.13;;;22.80
50206;BMP280;36098;48.390;10.856;2023-02-13T14:56:33;97948.53;;;22.85
50206;BMP280;36098;48.390;10.856;2023-02-13T14:59:14;97944.56;;;22.94
50206;BMP280;36098;48.390;10.856;2023-02-13T15:02:01;97934.03;;;23.05
50206;BMP280;36098;48.390;10.856;2023-02-13T15:04:34;97930.88;;;23.15
50206;BMP280;36098;48.390;10.856;2023-02-13T15:07:03;97937.91;;;23.21
50206;BMP280;36098;48.390;10.856;2023-02-13T15:09:35;97938.47;;;23.23
50206;BMP280;36098;48.390;10.856;2023-02-13T15:12:03;97933.44;;;23.21
50206;BMP280;36098;48.390;10.856;2023-02-13T15:14:34;97932.63;;;23.21
50206;BMP280;36098;48.390;10.856;2023-02-13T15:17:05;97934.69;;;23.19
50206;BMP280;36098;48.390;10.856;2023-02-13T15:19:31;97935.13;;;23.16
50206;BMP280;36098;48.390;10.856;2023-02-13T15:21:58;97933.97;;;23.12
50206;BMP280;36098;48.390;10.856;2023-02-13T15:24:24;97925.28;;;23.11
50206;BMP280;36098;48.390;10.856;2023-02-13T15:26:58;97935.22;;;23.09
50206;BMP280;36098;48.390;10.856;2023-02-13T15:29:23;97926.38;;;23.04
50206;BMP280;36098;48.390;10.856;2023-02-13T15:31:48;97920.06;;;23.05
50206;BMP280;36098;48.390;10.856;2023-02-13T15:34:21;97926.38;;;23.04
50206;BMP280;36098;48.390;10.856;2023-02-13T15:36:46;97934.03;;;23.05
50206;BMP280;36098;48.390;10.856;2023-02-13T15:39:15;97928.72;;;23.12
50206;BMP280;36098;48.390;10.856;2023-02-13T15:41:43;97924.03;;;23.25
50206;BMP280;36098;48.390;10.856;2023-02-13T15:44:14;97930.59;;;23.45
50206;BMP280;36098;48.390;10.856;2023-02-13T15:46:40;97932.41;;;23.56
50206;BMP280;36098;48.390;10.856;2023-02-13T15:49:07;97926.81;;;23.76
50206;BMP280;36098;48.390;10.856;2023-02-13T15:51:32;97935.78;;;23.86
50206;BMP280;36098;48.390;10.856;2023-02-13T15:54:02;97932.44;;;24.02
50206;BMP280;36098;48.390;10.856;2023-02-13T15:56:28;97940.03;;;23.87
50206;BMP280;36098;48.390;10.856;2023-02-13T15:58:54;97938.97;;;23.77
50206;BMP280;36098;48.390;10.856;2023-02-13T16:01:20;97937.84;;;23.73
50206;BMP280;36098;48.390;10.856;2023-02-13T16:03:46;97933.97;;;23.87
50206;BMP280;36098;48.390;10.856;2023-02-13T16:06:12;97934.75;;;23.87
50206;BMP280;36098;48.390;10.856;2023-02-13T16:08:38;97944.59;;;23.57
50206;BMP280;36098;48.390;10.856;2023-02-13T16:13:33;97938.47;;;23.11
50206;BMP280;36098;48.390;10.856;2023-02-13T16:15:58;97934.28;;;23.04
50206;BMP280;36098;48.390;10.856;2023-02-13T16:18:24;97939.84;;;22.96
50206;BMP280;36098;48.390;10.856;2023-02-13T16:20:53;97932.09;;;23.01
50206;BMP280;36098;48.390;10.856;2023-02-13T16:23:19;97944.16;;;23.08
50206;BMP280;36098;48.390;10.856;2023-02-13T16:25:45;97943.72;;;23.11
50206;BMP280;36098;48.390;10.856;2023-02-13T16:28:18;97942.72;;;23.12
50206;BMP280;36098;48.390;10.856;2023-02-13T16:30:46;97941.88;;;23.12
50206;BMP280;36098;48.390;10.856;2023-02-13T16:43:33;97968.66;;;23.09
50206;BMP280;36098;48.390;10.856;2023-02-13T16:48:36;97955.06;;;23.12
50206;BMP280;36098;48.390;10.856;2023-02-13T16:51:01;97955.78;;;23.19
50206;BMP280;36098;48.390;10.856;2023-02-13T16:53:27;97946.63;;;23.32
50206;BMP280;36098;48.390;10.856;2023-02-13T16:55:58;97946.50;;;23.16